sensor_id;sensor_type;location;lat;lon;timestamp;pressure;altitude;pressure_sealevel;temperature;humidity
32033;BME280;31720;52.638;9.216;2023-02-26T00:00:23;101351.66;;;-0.13;100.00
32033;BME280;31720;52.638;9.216;2023-02-26T00:03:24;101345.59;;;-0.14;100.00
32033;BME280;31720;52.638;9.216;2023-02-26T00:06:28;101351.66;;;-0.09;100.00
32033;BME280;31720;52.638;9.216;2023-02-26T00:09:31;101361.09;;;-0.28;100.00
32033;BME280;31720;52.638;9.216;2023-02-26T00:12:33;101358.50;;;-0.18;100.00
32033;BME280;31720;52.638;9.216;2023-02-26T00:15:35;101368.00;;;-0.19;100.00
32033;BME280;31720;52.638;9.216;2023-02-26T00:18:36;101378.31;;;-0.20;100.00
32033;BME280;31720;52.638;9.216;2023-02-26T00:21:40;101382.63;;;-0.19;100.00
32033;BME280;31720;52.638;9.216;2023-02-26T00:24:41;101384.34;;;-0.26;100.00
32033;BME280;31720;52.638;9.216;2023-02-26T00:27:43;101386.06;;;-0.28;100.00
32033;BME280;31720;52.638;9.216;2023-02-26T00:30:45;101393.81;;;-0.30;100.00
32033;BME280;31720;52.638;9.216;2023-02-26T00:33:47;101396.41;;;-0.31;100.00
32033;BME280;31720;52.638;9.216;2023-02-26T00:37:02;101404.13;;;-0.39;100.00
32033;BME280;31720;52.638;9.216;2023-02-26T00:40:18;101408.44;;;-0.39;100.00
32033;BME280;31720;52.638;9.216;2023-02-26T00:43:23;101404.09;;;-0.42;100.00
32033;BME280;31720;52.638;9.216;2023-02-26T00:46:34;101409.25;;;-0.46;100.00
32033;BME280;31720;52.638;9.216;2023-02-26T00:49:46;101409.28;;;-0.42;100.00
32033;BME280;31720;52.638;9.216;2023-02-26T00:53:01;101411.84;;;-0.46;100.00
32033;BME280;31720;52.638;9.216;2023-02-26T00:56:03;101415.28;;;-0.52;100.00
32033;BME280;31720;52.638;9.216;2023-02-26T00:59:05;101417.00;;;-0.48;100.00
32033;BME280;31720;52.638;9.216;2023-02-26T01:02:06;101414.41;;;-0.56;100.00
32033;BME280;31720;52.638;9.216;2023-02-26T01:05:09;101414.44;;;-0.43;100.00
32033;BME280;31720;52.638;9.216;2023-02-26T01:08:14;101423.03;;;-0.41;100.00
32033;BME280;31720;52.638;9.216;2023-02-26T01:11:20;101428.19;;;-0.46;100.00
32033;BME280;31720;52.638;9.216;2023-02-26T01:14:23;101428.22;;;-0.43;100.00
32033;BME280;31720;52.638;9.216;2023-02-26T01:17:28;101432.50;;;-0.46;100.00
32033;BME280;31720;52.638;9.216;2023-02-26T01:20:36;101441.91;;;-0.59;100.00
32033;BME280;31720;52.638;9.216;2023-02-26T01:23:44;101441.09;;;-0.52;100.00
32033;BME280;31720;52.638;9.216;2023-02-26T01:26:48;101438.50;;;-0.51;100.00
32033;BME280;31720;52.638;9.216;2023-02-26T01:29:50;101456.53;;;-0.67;100.00
32033;BME280;31720;52.638;9.216;2023-02-26T01:32:57;101457.38;;;-0.71;100.00
32033;BME280;31720;52.638;9.216;2023-02-26T01:36:02;101458.25;;;-0.65;100.00
32033;BME280;31720;52.638;9.216;2023-02-26T01:39:13;101459.94;;;-0.68;100.00
32033;BME280;31720;52.638;9.216;2023-02-26T01:42:21;101477.19;;;-0.61;100.00
32033;BME280;31720;52.638;9.216;2023-02-26T01:45:28;101473.78;;;-0.57;100.00
32033;BME280;31720;52.638;9.216;2023-02-26T01:48:37;101480.63;;;-0.61;100.00
32033;BME280;31720;52.638;9.216;2023-02-26T01:51:48;101482.41;;;-0.54;100.00
32033;BME280;31720;52.638;9.216;2023-02-26T01:54:51;101478.91;;;-0.62;100.00
32033;BME280;31720;52.638;9.216;2023-02-26T01:57:55;101489.25;;;-0.63;100.00
32033;BME280;31720;52.638;9.216;2023-02-26T02:00:58;101497.84;;;-0.60;100.00
32033;BME280;31720;52.638;9.216;2023-02-26T02:04:00;101491.81;;;-0.66;100.00
32033;BME280;31720;52.638;9.216;2023-02-26T02:07:03;101502.97;;;-0.64;100.00
32033;BME280;31720;52.638;9.216;2023-02-26T02:10:08;101509.88;;;-0.66;100.00
32033;BME280;31720;52.638;9.216;2023-02-26T02:13:18;101517.63;;;-0.62;100.00
32033;BME280;31720;52.638;9.216;2023-02-26T02:16:30;101525.41;;;-0.59;100.00
32033;BME280;31720;52.638;9.216;2023-02-26T02:19:50;101524.50;;;-0.65;100.00
32033;BME280;31720;52.638;9.216;2023-02-26T02:23:10;101527.13;;;-0.56;100.00
32033;BME280;31720;52.638;9.216;2023-02-26T02:26:34;101529.69;;;-0.59;100.00
32033;BME280;31720;52.638;9.216;2023-02-26T02:30:06;101537.41;;;-0.65;100.00
32033;BME280;31720;52.638;9.216;2023-02-26T02:33:14;101539.09;;;-0.70;100.00
32033;BME280;31720;52.638;9.216;2023-02-26T02:36:27;101542.44;;;-0.85;100.00
32033;BME280;31720;52.638;9.216;2023-02-26T02:39:32;101547.63;;;-0.78;100.00
32033;BME280;31720;52.638;9.216;2023-02-26T02:42:40;101537.25;;;-0.87;100.00
32033;BME280;31720;52.638;9.216;2023-02-26T02:45:47;101545.88;;;-0.89;100.00
32033;BME280;31720;52.638;9.216;2023-02-26T02:48:55;101543.34;;;-0.82;100.00
32033;BME280;31720;52.638;9.216;2023-02-26T02:52:04;101545.88;;;-0.88;100.00
32033;BME280;31720;52.638;9.216;2023-02-26T02:55:12;101557.03;;;-0.89;100.00
32033;BME280;31720;52.638;9.216;2023-02-26T02:58:17;101563.09;;;-0.82;100.00
32033;BME280;31720;52.638;9.216;2023-02-26T03:01:23;101577.72;;;-0.84;100.00
32033;BME280;31720;52.638;9.216;2023-02-26T03:04:27;101578.59;;;-0.81;100.00
32033;BME280;31720;52.638;9.216;2023-02-26T03:07:30;101582.88;;;-0.83;100.00
32033;BME280;31720;52.638;9.216;2023-02-26T03:10:33;101581.16;;;-0.85;100.00
32033;BME280;31720;52.638;9.216;2023-02-26T03:13:36;101584.53;;;-0.92;100.00
32033;BME280;31720;52.638;9.216;2023-02-26T03:16:48;101591.38;;;-0.97;100.00
32033;BME280;31720;52.638;9.216;2023-02-26T03:20:05;101594.00;;;-0.94;100.00
32033;BME280;31720;52.638;9.216;2023-02-26T03:23:13;101590.59;;;-0.89;100.00
32033;BME280;31720;52.638;9.216;2023-02-26T03:26:23;101593.09;;;-0.99;100.00
32033;BME280;31720;52.638;9.216;2023-02-26T03:29:33;101598.25;;;-0.96;100.00
32033;BME280;31720;52.638;9.216;2023-02-26T03:32:42;101605.13;;;-0.97;100.00
32033;BME280;31720;52.638;9.216;2023-02-26T03:35:51;101607.72;;;-0.98;100.00
32033;BME280;31720;52.638;9.216;2023-02-26T03:38:55;101616.31;;;-0.96;100.00
32033;BME280;31720;52.638;9.216;2023-02-26T03:42:02;101615.34;;;-1.11;100.00
32033;BME280;31720;52.638;9.216;2023-02-26T03:45:08;101618.03;;;-0.95;100.00
32033;BME280;31720;52.638;9.216;2023-02-26T03:48:12;101613.78;;;-0.92;100.00
32033;BME280;31720;52.638;9.216;2023-02-26T03:51:19;101620.56;;;-1.02;100.00
32033;BME280;31720;52.638;9.216;2023-02-26T03:54:24;101629.22;;;-0.96;100.00
32033;BME280;31720;52.638;9.216;2023-02-26T03:57:26;101631.72;;;-1.06;100.00
32033;BME280;31720;52.638;9.216;2023-02-26T04:00:30;101636.00;;;-1.05;100.00
32033;BME280;31720;52.638;9.216;2023-02-26T04:03:35;101642.06;;;-1.04;100.00
32033;BME280;31720;52.638;9.216;2023-02-26T04:06:42;101643.75;;;-1.06;100.00
32033;BME280;31720;52.638;9.216;2023-02-26T04:09:46;101646.28;;;-1.09;100.00
32033;BME280;31720;52.638;9.216;2023-02-26T04:12:47;101655.69;;;-1.17;100.00
32033;BME280;31720;52.638;9.216;2023-02-26T04:15:49;101660.78;;;-1.23;100.00
32033;BME280;31720;52.638;9.216;2023-02-26T04:18:50;101664.25;;;-1.20;100.00
32033;BME280;31720;52.638;9.216;2023-02-26T04:21:53;101667.69;;;-1.21;100.00
32033;BME280;31720;52.638;9.216;2023-02-26T04:24:54;101665.06;;;-1.27;100.00
32033;BME280;31720;52.638;9.216;2023-02-26T04:27:56;101674.53;;;-1.24;100.00
32033;BME280;31720;52.638;9.216;2023-02-26T04:30:57;101667.59;;;-1.30;100.00
32033;BME280;31720;52.638;9.216;2023-02-26T04:33:58;101681.41;;;-1.25;100.00
32033;BME280;31720;52.638;9.216;2023-02-26T04:37:01;101677.06;;;-1.29;100.00
32033;BME280;31720;52.638;9.216;2023-02-26T04:40:04;101683.97;;;-1.25;100.00
32033;BME280;31720;52.638;9.216;2023-02-26T04:43:06;101690.91;;;-1.22;100.00
32033;BME280;31720;52.638;9.216;2023-02-26T04:46:07;101690.09;;;-1.17;100.00
32033;BME280;31720;52.638;9.216;2023-02-26T04:49:09;101696.91;;;-1.22;100.00
32033;BME280;31720;52.638;9.216;2023-02-26T04:52:11;101707.19;;;-1.26;100.00
32033;BME280;31720;52.638;9.216;2023-02-26T04:55:13;101705.38;;;-1.35;100.00
32033;BME280;31720;52.638;9.216;2023-02-26T04:58:15;101713.16;;;-1.29;100.00
32033;BME280;31720;52.638;9.216;2023-02-26T05:01:16;101719.97;;;-1.34;100.00
32033;BME280;31720;52.638;9.216;2023-02-26T05:04:18;101719.06;;;-1.39;100.00
32033;BME280;31720;52.638;9.216;2023-02-26T05:07:20;101731.91;;;-1.44;100.00
32033;BME280;31720;52.638;9.216;2023-02-26T05:10:22;101729.28;;;-1.45;100.00
32033;BME280;31720;52.638;9.216;2023-02-26T05:13:23;101736.03;;;-1.57;100.00
32033;BME280;31720;52.638;9.216;2023-02-26T05:16:25;101737.69;;;-1.63;100.00
32033;BME280;31720;52.638;9.216;2023-02-26T05:19:27;101737.75;;;-1.56;100.00
32033;BME280;31720;52.638;9.216;2023-02-26T05:22:29;101740.50;;;-1.45;100.00
32033;BME280;31720;52.638;9.216;2023-02-26T05:25:31;101745.59;;;-1.46;100.00
32033;BME280;31720;52.638;9.216;2023-02-26T05:28:32;101750.06;;;-1.36;100.00
32033;BME280;31720;52.638;9.216;2023-02-26T05:31:35;101748.28;;;-1.40;100.00
32033;BME280;31720;52.638;9.216;2023-02-26T05:34:37;101752.50;;;-1.45;100.00
32033;BME280;31720;52.638;9.216;2023-02-26T05:37:39;101757.69;;;-1.42;100.00
32033;BME280;31720;52.638;9.216;2023-02-26T05:40:41;101768.91;;;-1.39;100.00
32033;BME280;31720;52.638;9.216;2023-02-26T05:43:42;101757.72;;;-1.41;100.00
32033;BME280;31720;52.638;9.216;2023-02-26T05:46:44;101768.84;;;-1.45;100.00
32033;BME280;31720;52.638;9.216;2023-02-26T05:49:45;101779.22;;;-1.40;100.00
32033;BME280;31720;52.638;9.216;2023-02-26T05:52:48;101776.66;;;-1.39;100.00
32033;BME280;31720;52.638;9.216;2023-02-26T05:55:49;101789.44;;;-1.46;100.00
32033;BME280;31720;52.638;9.216;2023-02-26T05:58:51;101798.88;;;-1.45;100.00
32033;BME280;31720;52.638;9.216;2023-02-26T06:01:53;101803.25;;;-1.41;100.00
32033;BME280;31720;52.638;9.216;2023-02-26T06:04:54;101812.72;;;-1.40;100.00
32033;BME280;31720;52.638;9.216;2023-02-26T06:07:57;101817.03;;;-1.38;100.00
32033;BME280;31720;52.638;9.216;2023-02-26T06:10:58;101816.22;;;-1.35;100.00
32033;BME280;31720;52.638;9.216;2023-02-26T06:13:59;101819.56;;;-1.44;100.00
32033;BME280;31720;52.638;9.216;2023-02-26T06:17:01;101832.38;;;-1.47;100.00
32033;BME280;31720;52.638;9.216;2023-02-26T06:20:03;101836.75;;;-1.43;100.00
32033;BME280;31720;52.638;9.216;2023-02-26T06:23:06;101843.59;;;-1.45;100.00
32033;BME280;31720;52.638;9.216;2023-02-26T06:26:08;101846.19;;;-1.45;100.00
32033;BME280;31720;52.638;9.216;2023-02-26T06:29:09;101856.50;;;-1.45;100.00
32033;BME280;31720;52.638;9.216;2023-02-26T06:32:11;101859.94;;;-1.41;100.00
32033;BME280;31720;52.638;9.216;2023-02-26T06:35:12;101862.50;;;-1.44;100.00
32033;BME280;31720;52.638;9.216;2023-02-26T06:38:16;101866.94;;;-1.36;100.00
32033;BME280;31720;52.638;9.216;2023-02-26T06:41:17;101871.28;;;-1.32;100.00
32033;BME280;31720;52.638;9.216;2023-02-26T06:44:18;101872.16;;;-1.31;100.00
32033;BME280;31720;52.638;9.216;2023-02-26T06:47:20;101871.28;;;-1.32;100.00
32033;BME280;31720;52.638;9.216;2023-02-26T06:50:21;101880.81;;;-1.26;100.00
32033;BME280;31720;52.638;9.216;2023-02-26T06:53:24;101882.53;;;-1.25;100.00
32033;BME280;31720;52.638;9.216;2023-02-26T06:56:26;101889.47;;;-1.21;100.00
32033;BME280;31720;52.638;9.216;2023-02-26T06:59:27;101885.09;;;-1.26;100.00
32033;BME280;31720;52.638;9.216;2023-02-26T07:02:29;101892.84;;;-1.25;100.00
32033;BME280;31720;52.638;9.216;2023-02-26T07:05:30;101898.88;;;-1.23;100.00
32033;BME280;31720;52.638;9.216;2023-02-26T07:08:33;101908.31;;;-1.26;100.00
32033;BME280;31720;52.638;9.216;2023-02-26T07:11:34;101910.03;;;-1.27;100.00
32033;BME280;31720;52.638;9.216;2023-02-26T07:14:36;101919.38;;;-1.32;100.00
32033;BME280;31720;52.638;9.216;2023-02-26T07:17:37;101921.22;;;-1.25;100.00
32033;BME280;31720;52.638;9.216;2023-02-26T07:20:38;101924.72;;;-1.20;100.00
32033;BME280;31720;52.638;9.216;2023-02-26T07:23:41;101933.44;;;-1.13;100.00
32033;BME280;31720;52.638;9.216;2023-02-26T07:26:42;101936.94;;;-1.07;100.00
32033;BME280;31720;52.638;9.216;2023-02-26T07:29:44;101936.94;;;-1.08;100.00
32033;BME280;31720;52.638;9.216;2023-02-26T07:32:45;101943.88;;;-1.04;100.00
32033;BME280;31720;52.638;9.216;2023-02-26T07:35:46;101948.19;;;-1.02;100.00
32033;BME280;31720;52.638;9.216;2023-02-26T07:38:49;101942.13;;;-1.05;100.00
32033;BME280;31720;52.638;9.216;2023-02-26T07:41:50;101950.72;;;-1.05;100.00
32033;BME280;31720;52.638;9.216;2023-02-26T07:44:52;101950.81;;;-0.98;100.00
32033;BME280;31720;52.638;9.216;2023-02-26T07:47:53;101957.75;;;-0.94;100.00
32033;BME280;31720;52.638;9.216;2023-02-26T07:50:55;101969.00;;;-0.89;100.00
32033;BME280;31720;52.638;9.216;2023-02-26T07:53:58;101979.38;;;-0.85;100.00
32033;BME280;31720;52.638;9.216;2023-02-26T07:56:59;101989.81;;;-0.75;100.00
32033;BME280;31720;52.638;9.216;2023-02-26T08:00:01;101988.91;;;-0.79;100.00
32033;BME280;31720;52.638;9.216;2023-02-26T08:03:03;101992.41;;;-0.74;100.00
32033;BME280;31720;52.638;9.216;2023-02-26T08:06:05;101996.72;;;-0.74;100.00
32033;BME280;31720;52.638;9.216;2023-02-26T08:09:08;101993.44;;;-0.61;100.00
32033;BME280;31720;52.638;9.216;2023-02-26T08:12:10;101999.53;;;-0.58;100.00
32033;BME280;31720;52.638;9.216;2023-02-26T08:15:11;102008.13;;;-0.57;100.00
32033;BME280;31720;52.638;9.216;2023-02-26T08:18:13;102012.44;;;-0.56;100.00
32033;BME280;31720;52.638;9.216;2023-02-26T08:21:14;102004.75;;;-0.52;100.00
32033;BME280;31720;52.638;9.216;2023-02-26T08:24:17;102011.69;;;-0.46;100.00
32033;BME280;31720;52.638;9.216;2023-02-26T08:27:18;102026.38;;;-0.45;100.00
32033;BME280;31720;52.638;9.216;2023-02-26T08:30:20;102021.25;;;-0.40;100.00
32033;BME280;31720;52.638;9.216;2023-02-26T08:33:21;102023.97;;;-0.30;100.00
32033;BME280;31720;52.638;9.216;2023-02-26T08:36:23;102026.59;;;-0.25;100.00
32033;BME280;31720;52.638;9.216;2023-02-26T08:39:26;102031.88;;;-0.17;100.00
32033;BME280;31720;52.638;9.216;2023-02-26T08:42:27;102032.69;;;-0.18;100.00
32033;BME280;31720;52.638;9.216;2023-02-26T08:45:29;102041.41;;;-0.12;100.00
32033;BME280;31720;52.638;9.216;2023-02-26T08:48:30;102044.91;;;-0.05;100.00
32033;BME280;31720;52.638;9.216;2023-02-26T08:51:32;102054.47;;;0.01;100.00
32033;BME280;31720;52.638;9.216;2023-02-26T08:54:35;102057.09;;;0.08;99.69
32033;BME280;31720;52.638;9.216;2023-02-26T08:57:36;102063.19;;;0.12;98.12
32033;BME280;31720;52.638;9.216;2023-02-26T09:00:37;102070.13;;;0.14;98.02
32033;BME280;31720;52.638;9.216;2023-02-26T09:03:39;102059.84;;;0.20;97.29
32033;BME280;31720;52.638;9.216;2023-02-26T09:06:40;102065.97;;;0.30;95.16
32033;BME280;31720;52.638;9.216;2023-02-26T09:09:43;102077.31;;;0.43;96.44
32033;BME280;31720;52.638;9.216;2023-02-26T09:12:44;102075.66;;;0.51;95.12
32033;BME280;31720;52.638;9.216;2023-02-26T09:15:47;102077.38;;;0.52;96.33
32033;BME280;31720;52.638;9.216;2023-02-26T09:18:49;102076.56;;;0.56;95.38
32033;BME280;31720;52.638;9.216;2023-02-26T09:21:50;102086.09;;;0.62;94.68
32033;BME280;31720;52.638;9.216;2023-02-26T09:24:53;102082.69;;;0.67;91.37
32033;BME280;31720;52.638;9.216;2023-02-26T09:27:54;102083.59;;;0.69;89.76
32033;BME280;31720;52.638;9.216;2023-02-26T09:30:55;102095.78;;;0.83;89.88
32033;BME280;31720;52.638;9.216;2023-02-26T09:33:57;102088.03;;;0.86;89.69
32033;BME280;31720;52.638;9.216;2023-02-26T09:36:58;102101.84;;;0.89;88.64
32033;BME280;31720;52.638;9.216;2023-02-26T09:40:01;102096.72;;;0.92;87.57
32033;BME280;31720;52.638;9.216;2023-02-26T09:43:27;102111.53;;;1.10;86.89
32033;BME280;31720;52.638;9.216;2023-02-26T09:46:40;102111.53;;;1.12;85.98
32033;BME280;31720;52.638;9.216;2023-02-26T09:49:49;102115.84;;;1.13;85.60
32033;BME280;31720;52.638;9.216;2023-02-26T09:52:56;102114.16;;;1.15;87.35
32033;BME280;31720;52.638;9.216;2023-02-26T09:56:04;102115.91;;;1.19;88.52
32033;BME280;31720;52.638;9.216;2023-02-26T09:59:08;102121.09;;;1.19;87.17
32033;BME280;31720;52.638;9.216;2023-02-26T10:02:15;102123.72;;;1.25;86.16
32033;BME280;31720;52.638;9.216;2023-02-26T10:05:23;102122.81;;;1.21;84.10
32033;BME280;31720;52.638;9.216;2023-02-26T10:08:30;102121.13;;;1.23;86.57
32033;BME280;31720;52.638;9.216;2023-02-26T10:11:41;102127.13;;;1.21;84.82
32033;BME280;31720;52.638;9.216;2023-02-26T10:14:48;102134.94;;;1.24;85.06
32033;BME280;31720;52.638;9.216;2023-02-26T10:18:03;102142.69;;;1.25;86.27
32033;BME280;31720;52.638;9.216;2023-02-26T10:21:08;102138.44;;;1.32;86.75
32033;BME280;31720;52.638;9.216;2023-02-26T10:24:17;102140.22;;;1.41;85.57
32033;BME280;31720;52.638;9.216;2023-02-26T10:27:27;102141.97;;;1.45;85.73
32033;BME280;31720;52.638;9.216;2023-02-26T10:30:36;102149.78;;;1.46;85.62
32033;BME280;31720;52.638;9.216;2023-02-26T10:33:47;102145.47;;;1.50;85.15
32033;BME280;31720;52.638;9.216;2023-02-26T10:37:00;102146.28;;;1.43;85.70
32033;BME280;31720;52.638;9.216;2023-02-26T10:40:09;102142.03;;;1.51;84.33
32033;BME280;31720;52.638;9.216;2023-02-26T10:43:17;102146.38;;;1.55;84.64
32033;BME280;31720;52.638;9.216;2023-02-26T10:46:32;102150.75;;;1.64;85.13
32033;BME280;31720;52.638;9.216;2023-02-26T10:49:49;102162.03;;;1.75;85.15
32033;BME280;31720;52.638;9.216;2023-02-26T10:52:52;102152.69;;;2.05;86.83
32033;BME280;31720;52.638;9.216;2023-02-26T10:56:00;102151.00;;;2.22;84.19
32033;BME280;31720;52.638;9.216;2023-02-26T10:59:04;102160.59;;;2.41;80.32
32033;BME280;31720;52.638;9.216;2023-02-26T11:02:35;102154.59;;;2.56;79.91
32033;BME280;31720;52.638;9.216;2023-02-26T11:05:38;102163.28;;;2.69;77.97
32033;BME280;31720;52.638;9.216;2023-02-26T11:08:42;102163.28;;;2.78;78.24
32033;BME280;31720;52.638;9.216;2023-02-26T11:11:48;102160.69;;;2.83;76.27
32033;BME280;31720;52.638;9.216;2023-02-26T11:14:52;102169.34;;;2.94;77.23
32033;BME280;31720;52.638;9.216;2023-02-26T11:17:56;102166.75;;;2.98;74.68
32033;BME280;31720;52.638;9.216;2023-02-26T11:20:59;102172.81;;;2.93;76.10
32033;BME280;31720;52.638;9.216;2023-02-26T11:24:04;102165.81;;;2.58;74.62
32033;BME280;31720;52.638;9.216;2023-02-26T11:27:12;102161.47;;;2.46;76.17
32033;BME280;31720;52.638;9.216;2023-02-26T11:30:16;102163.19;;;2.43;75.40
32033;BME280;31720;52.638;9.216;2023-02-26T11:33:22;102158.06;;;2.72;75.81
32033;BME280;31720;52.638;9.216;2023-02-26T11:36:28;102165.03;;;2.96;76.36
32033;BME280;31720;52.638;9.216;2023-02-26T11:39:33;102162.47;;;3.14;75.37
32033;BME280;31720;52.638;9.216;2023-02-26T11:42:37;102167.63;;;3.42;73.75
32033;BME280;31720;52.638;9.216;2023-02-26T11:45:44;102154.59;;;3.59;68.94
32033;BME280;31720;52.638;9.216;2023-02-26T11:48:48;102164.97;;;3.83;65.72
32033;BME280;31720;52.638;9.216;2023-02-26T11:52:04;102165.78;;;3.97;65.83
32033;BME280;31720;52.638;9.216;2023-02-26T11:55:17;102159.66;;;4.12;65.95
32033;BME280;31720;52.638;9.216;2023-02-26T11:58:20;102167.38;;;4.30;65.80
32033;BME280;31720;52.638;9.216;2023-02-26T12:01:28;102163.00;;;4.40;63.31
32033;BME280;31720;52.638;9.216;2023-02-26T12:04:30;102168.22;;;4.39;62.87
32033;BME280;31720;52.638;9.216;2023-02-26T12:07:31;102163.84;;;4.50;64.21
32033;BME280;31720;52.638;9.216;2023-02-26T12:10:36;102161.16;;;4.64;62.69
32033;BME280;31720;52.638;9.216;2023-02-26T12:13:43;102161.91;;;4.82;61.71
32033;BME280;31720;52.638;9.216;2023-02-26T12:17:03;102160.91;;;4.97;62.14
32033;BME280;31720;52.638;9.216;2023-02-26T12:20:14;102159.88;;;5.17;59.00
32033;BME280;31720;52.638;9.216;2023-02-26T12:23:58;102160.81;;;5.11;57.98
32033;BME280;31720;52.638;9.216;2023-02-26T12:27:10;102159.88;;;5.17;59.52
32033;BME280;31720;52.638;9.216;2023-02-26T12:30:28;102167.72;;;5.15;56.05
32033;BME280;31720;52.638;9.216;2023-02-26T12:33:43;102169.38;;;5.28;57.61
32033;BME280;31720;52.638;9.216;2023-02-26T12:37:02;102167.50;;;5.40;56.08
32033;BME280;31720;52.638;9.216;2023-02-26T12:40:15;102160.66;;;5.29;54.90
32033;BME280;31720;52.638;9.216;2023-02-26T12:43:29;102163.09;;;5.48;54.70
32033;BME280;31720;52.638;9.216;2023-02-26T12:46:42;102158.69;;;5.53;54.92
32033;BME280;31720;52.638;9.216;2023-02-26T12:49:56;102163.88;;;5.59;56.18
32033;BME280;31720;52.638;9.216;2023-02-26T12:53:22;102166.41;;;5.65;53.51
32033;BME280;31720;52.638;9.216;2023-02-26T12:56:38;102169.06;;;5.60;53.07
32033;BME280;31720;52.638;9.216;2023-02-26T12:59:59;102169.06;;;5.60;52.49
32033;BME280;31720;52.638;9.216;2023-02-26T13:10:26;102162.66;;;5.89;52.06
32033;BME280;31720;52.638;9.216;2023-02-26T13:13:46;102156.75;;;5.72;52.01
32033;BME280;31720;52.638;9.216;2023-02-26T13:16:55;102159.03;;;6.07;53.41
32033;BME280;31720;52.638;9.216;2023-02-26T13:20:04;102161.69;;;6.02;52.31
32033;BME280;31720;52.638;9.216;2023-02-26T13:23:13;102165.03;;;6.14;52.16
32033;BME280;31720;52.638;9.216;2023-02-26T13:26:19;102153.25;;;6.50;53.06
32033;BME280;31720;52.638;9.216;2023-02-26T13:29:24;102154.91;;;6.54;51.26
32033;BME280;31720;52.638;9.216;2023-02-26T13:32:27;102153.19;;;6.54;52.35
32033;BME280;31720;52.638;9.216;2023-02-26T13:35:32;102161.63;;;6.73;51.66
32033;BME280;31720;52.638;9.216;2023-02-26T13:38:46;102153.34;;;6.42;51.97
32033;BME280;31720;52.638;9.216;2023-02-26T13:41:57;102163.00;;;6.35;52.95
32033;BME280;31720;52.638;9.216;2023-02-26T13:45:22;102159.50;;;6.38;51.27
32033;BME280;31720;52.638;9.216;2023-02-26T13:48:34;102170.72;;;6.45;52.79
32033;BME280;31720;52.638;9.216;2023-02-26T13:51:40;102168.69;;;6.00;51.98
32033;BME280;31720;52.638;9.216;2023-02-26T13:54:44;102154.78;;;5.98;53.25
32033;BME280;31720;52.638;9.216;2023-02-26T13:57:50;102153.56;;;6.25;56.73
32033;BME280;31720;52.638;9.216;2023-02-26T14:00:57;102150.97;;;6.25;53.88
32033;BME280;31720;52.638;9.216;2023-02-26T14:04:07;102151.31;;;6.64;53.06
32033;BME280;31720;52.638;9.216;2023-02-26T14:07:46;102150.91;;;6.31;56.07
32033;BME280;31720;52.638;9.216;2023-02-26T14:10:55;102169.72;;;5.81;57.37
32033;BME280;31720;52.638;9.216;2023-02-26T14:14:13;102164.69;;;5.63;58.18
32033;BME280;31720;52.638;9.216;2023-02-26T14:17:36;102177.81;;;5.53;59.18
32033;BME280;31720;52.638;9.216;2023-02-26T14:20:38;102166.56;;;5.48;60.51
32033;BME280;31720;52.638;9.216;2023-02-26T14:23:40;102162.19;;;5.55;61.59
32033;BME280;31720;52.638;9.216;2023-02-26T14:26:45;102166.31;;;5.74;61.49
32033;BME280;31720;52.638;9.216;2023-02-26T14:29:58;102169.94;;;5.58;62.02
32033;BME280;31720;52.638;9.216;2023-02-26T14:33:07;102160.81;;;5.11;61.42
32033;BME280;31720;52.638;9.216;2023-02-26T14:36:33;102169.59;;;5.01;64.38
32033;BME280;31720;52.638;9.216;2023-02-26T14:39:39;102170.34;;;5.12;64.12
32033;BME280;31720;52.638;9.216;2023-02-26T14:42:44;102178.94;;;5.28;60.38
32033;BME280;31720;52.638;9.216;2023-02-26T14:45:49;102174.69;;;5.15;61.26
32033;BME280;31720;52.638;9.216;2023-02-26T14:48:51;102169.50;;;5.10;63.61
32033;BME280;31720;52.638;9.216;2023-02-26T14:52:10;102178.09;;;5.21;63.54
32033;BME280;31720;52.638;9.216;2023-02-26T14:55:29;102174.63;;;5.21;60.59
32033;BME280;31720;52.638;9.216;2023-02-26T14:58:49;102171.94;;;5.31;60.04
32033;BME280;31720;52.638;9.216;2023-02-26T15:02:01;102176.22;;;5.35;62.73
32033;BME280;31720;52.638;9.216;2023-02-26T15:05:28;102177.94;;;5.40;63.66
32033;BME280;31720;52.638;9.216;2023-02-26T15:08:40;102184.19;;;5.17;64.02
32033;BME280;31720;52.638;9.216;2023-02-26T15:12:00;102185.16;;;5.04;62.09
32033;BME280;31720;52.638;9.216;2023-02-26T15:15:17;102180.94;;;4.91;64.60
32033;BME280;31720;52.638;9.216;2023-02-26T15:18:37;102177.47;;;4.89;62.93
32033;BME280;31720;52.638;9.216;2023-02-26T15:21:54;102180.06;;;4.89;63.60
32033;BME280;31720;52.638;9.216;2023-02-26T15:24:59;102184.44;;;4.88;63.31
32033;BME280;31720;52.638;9.216;2023-02-26T15:28:03;102181.06;;;4.69;63.31
32033;BME280;31720;52.638;9.216;2023-02-26T15:31:08;102186.28;;;4.68;64.65
32033;BME280;31720;52.638;9.216;2023-02-26T15:34:12;102181.94;;;4.73;64.83
32033;BME280;31720;52.638;9.216;2023-02-26T15:37:19;102187.06;;;4.83;62.68
32033;BME280;31720;52.638;9.216;2023-02-26T15:40:21;102189.72;;;4.74;64.63
32033;BME280;31720;52.638;9.216;2023-02-26T15:43:25;102190.63;;;4.67;64.60
32033;BME280;31720;52.638;9.216;2023-02-26T15:46:30;102187.13;;;4.73;64.08
32033;BME280;31720;52.638;9.216;2023-02-26T15:49:36;102187.16;;;4.67;65.52
32033;BME280;31720;52.638;9.216;2023-02-26T15:52:39;102192.38;;;4.62;64.87
32033;BME280;31720;52.638;9.216;2023-02-26T15:55:46;102195.00;;;4.64;63.79
32033;BME280;31720;52.638;9.216;2023-02-26T15:58:51;102203.72;;;4.56;65.12
32033;BME280;31720;52.638;9.216;2023-02-26T16:01:54;102197.66;;;4.48;66.06
32033;BME280;31720;52.638;9.216;2023-02-26T16:04:57;102205.56;;;4.33;67.07
32033;BME280;31720;52.638;9.216;2023-02-26T16:07:58;102201.22;;;4.29;66.11
32033;BME280;31720;52.638;9.216;2023-02-26T16:11:00;102197.75;;;4.25;68.08
32033;BME280;31720;52.638;9.216;2023-02-26T16:14:02;102211.66;;;4.21;67.13
32033;BME280;31720;52.638;9.216;2023-02-26T16:17:07;102215.16;;;4.14;66.66